sensor_id;sensor_type;location;lat;lon;timestamp;temperature;humidity
35523;DHT22;61478;50.820;4.330;2023-12-20T00:01:00;7.60;99.90
35523;DHT22;61478;50.820;4.330;2023-12-20T00:03:29;7.50;99.90
35523;DHT22;61478;50.820;4.330;2023-12-20T00:05:55;7.50;99.90
35523;DHT22;61478;50.820;4.330;2023-12-20T00:08:22;7.50;99.90
35523;DHT22;61478;50.820;4.330;2023-12-20T00:10:48;7.50;99.90
35523;DHT22;61478;50.820;4.330;2023-12-20T00:13:17;7.50;99.90
35523;DHT22;61478;50.820;4.330;2023-12-20T00:15:43;7.50;99.90
35523;DHT22;61478;50.820;4.330;2023-12-20T00:18:12;7.50;99.90
35523;DHT22;61478;50.820;4.330;2023-12-20T00:20:38;7.50;99.90
35523;DHT22;61478;50.820;4.330;2023-12-20T00:23:04;7.50;99.90
35523;DHT22;61478;50.820;4.330;2023-12-20T00:25:36;7.50;99.90
35523;DHT22;61478;50.820;4.330;2023-12-20T00:28:07;7.50;99.90
35523;DHT22;61478;50.820;4.330;2023-12-20T00:30:34;7.40;99.90
35523;DHT22;61478;50.820;4.330;2023-12-20T00:33:03;7.50;99.90
35523;DHT22;61478;50.820;4.330;2023-12-20T00:35:29;7.40;99.90
35523;DHT22;61478;50.820;4.330;2023-12-20T00:37:55;7.40;99.90
35523;DHT22;61478;50.820;4.330;2023-12-20T00:40:21;7.50;99.90
35523;DHT22;61478;50.820;4.330;2023-12-20T00:42:50;7.40;99.90
35523;DHT22;61478;50.820;4.330;2023-12-20T00:45:19;7.50;99.90
35523;DHT22;61478;50.820;4.330;2023-12-20T00:47:48;7.30;99.90
35523;DHT22;61478;50.820;4.330;2023-12-20T00:50:17;7.30;99.90
35523;DHT22;61478;50.820;4.330;2023-12-20T00:52:48;7.20;99.90
35523;DHT22;61478;50.820;4.330;2023-12-20T00:55:25;7.20;99.90
35523;DHT22;61478;50.820;4.330;2023-12-20T00:57:54;7.10;99.90
35523;DHT22;61478;50.820;4.330;2023-12-20T01:00:20;7.10;99.90
35523;DHT22;61478;50.820;4.330;2023-12-20T01:02:46;7.10;99.90
35523;DHT22;61478;50.820;4.330;2023-12-20T01:05:14;7.10;99.90
35523;DHT22;61478;50.820;4.330;2023-12-20T01:07:40;7.10;99.90
35523;DHT22;61478;50.820;4.330;2023-12-20T01:10:06;7.10;99.90
35523;DHT22;61478;50.820;4.330;2023-12-20T01:12:32;7.00;99.90
35523;DHT22;61478;50.820;4.330;2023-12-20T01:15:01;7.00;99.90
35523;DHT22;61478;50.820;4.330;2023-12-20T01:17:37;7.00;99.90
35523;DHT22;61478;50.820;4.330;2023-12-20T01:20:06;6.90;99.90
35523;DHT22;61478;50.820;4.330;2023-12-20T01:22:34;6.90;99.90
35523;DHT22;61478;50.820;4.330;2023-12-20T01:25:06;6.90;99.90
35523;DHT22;61478;50.820;4.330;2023-12-20T01:27:35;7.00;99.90
35523;DHT22;61478;50.820;4.330;2023-12-20T01:30:00;6.90;99.90
35523;DHT22;61478;50.820;4.330;2023-12-20T01:32:26;6.90;99.90
35523;DHT22;61478;50.820;4.330;2023-12-20T01:34:56;6.90;99.90
35523;DHT22;61478;50.820;4.330;2023-12-20T01:37:22;6.90;99.90
35523;DHT22;61478;50.820;4.330;2023-12-20T01:39:51;6.90;99.90
35523;DHT22;61478;50.820;4.330;2023-12-20T01:42:20;6.90;99.90
35523;DHT22;61478;50.820;4.330;2023-12-20T01:44:59;6.80;99.90
35523;DHT22;61478;50.820;4.330;2023-12-20T01:47:27;6.80;99.90
35523;DHT22;61478;50.820;4.330;2023-12-20T01:50:02;6.70;99.90
35523;DHT22;61478;50.820;4.330;2023-12-20T01:52:29;6.70;99.90
35523;DHT22;61478;50.820;4.330;2023-12-20T01:54:55;6.70;99.90
35523;DHT22;61478;50.820;4.330;2023-12-20T01:57:26;6.60;99.90
35523;DHT22;61478;50.820;4.330;2023-12-20T01:59:53;6.60;99.90
35523;DHT22;61478;50.820;4.330;2023-12-20T02:02:18;6.60;99.90
35523;DHT22;61478;50.820;4.330;2023-12-20T02:04:45;6.70;99.90
35523;DHT22;61478;50.820;4.330;2023-12-20T02:07:11;6.70;99.90
35523;DHT22;61478;50.820;4.330;2023-12-20T02:09:37;6.70;99.90
35523;DHT22;61478;50.820;4.330;2023-12-20T02:12:03;6.70;99.90
35523;DHT22;61478;50.820;4.330;2023-12-20T02:14:30;6.70;99.90
35523;DHT22;61478;50.820;4.330;2023-12-20T02:17:04;6.60;99.90
35523;DHT22;61478;50.820;4.330;2023-12-20T02:19:33;6.60;99.90
35523;DHT22;61478;50.820;4.330;2023-12-20T02:22:07;6.50;99.90
35523;DHT22;61478;50.820;4.330;2023-12-20T02:24:39;6.50;99.90
35523;DHT22;61478;50.820;4.330;2023-12-20T02:27:05;6.50;99.90
35523;DHT22;61478;50.820;4.330;2023-12-20T02:29:34;6.50;99.90
35523;DHT22;61478;50.820;4.330;2023-12-20T02:32:00;6.50;99.90
35523;DHT22;61478;50.820;4.330;2023-12-20T02:34:29;6.60;99.90
35523;DHT22;61478;50.820;4.330;2023-12-20T02:36:58;6.50;99.90
35523;DHT22;61478;50.820;4.330;2023-12-20T02:39:28;6.40;99.90
35523;DHT22;61478;50.820;4.330;2023-12-20T02:41:57;6.50;99.90
35523;DHT22;61478;50.820;4.330;2023-12-20T02:44:32;6.40;99.90
35523;DHT22;61478;50.820;4.330;2023-12-20T02:47:03;6.40;99.90
35523;DHT22;61478;50.820;4.330;2023-12-20T02:49:35;6.30;99.90
35523;DHT22;61478;50.820;4.330;2023-12-20T02:52:11;6.40;99.90
35523;DHT22;61478;50.820;4.330;2023-12-20T02:54:45;6.40;99.90
35523;DHT22;61478;50.820;4.330;2023-12-20T02:57:22;6.40;99.90
35523;DHT22;61478;50.820;4.330;2023-12-20T02:59:51;6.40;99.90
35523;DHT22;61478;50.820;4.330;2023-12-20T03:02:16;6.40;99.90
35523;DHT22;61478;50.820;4.330;2023-12-20T03:04:42;6.40;99.90
35523;DHT22;61478;50.820;4.330;2023-12-20T03:07:08;6.40;99.90
35523;DHT22;61478;50.820;4.330;2023-12-20T03:09:34;6.40;99.90
35523;DHT22;61478;50.820;4.330;2023-12-20T03:12:00;6.50;99.90
35523;DHT22;61478;50.820;4.330;2023-12-20T03:14:33;6.40;99.90
35523;DHT22;61478;50.820;4.330;2023-12-20T03:17:02;6.50;99.90
35523;DHT22;61478;50.820;4.330;2023-12-20T03:19:28;6.60;99.90
35523;DHT22;61478;50.820;4.330;2023-12-20T03:21:54;6.60;99.90
35523;DHT22;61478;50.820;4.330;2023-12-20T03:24:20;6.50;99.90
35523;DHT22;61478;50.820;4.330;2023-12-20T03:26:45;6.60;99.90
35523;DHT22;61478;50.820;4.330;2023-12-20T03:29:11;6.50;99.90
35523;DHT22;61478;50.820;4.330;2023-12-20T03:31:37;6.60;99.90
35523;DHT22;61478;50.820;4.330;2023-12-20T03:34:02;6.60;99.90
35523;DHT22;61478;50.820;4.330;2023-12-20T03:36:28;6.60;99.90
35523;DHT22;61478;50.820;4.330;2023-12-20T03:38:54;6.60;99.90
35523;DHT22;61478;50.820;4.330;2023-12-20T03:41:20;6.60;99.90
35523;DHT22;61478;50.820;4.330;2023-12-20T03:43:46;6.60;99.90
35523;DHT22;61478;50.820;4.330;2023-12-20T03:46:12;6.60;99.90
35523;DHT22;61478;50.820;4.330;2023-12-20T03:48:43;6.60;99.90
35523;DHT22;61478;50.820;4.330;2023-12-20T03:51:12;6.60;99.90
35523;DHT22;61478;50.820;4.330;2023-12-20T03:53:41;6.60;99.90
35523;DHT22;61478;50.820;4.330;2023-12-20T03:56:10;6.60;99.90
35523;DHT22;61478;50.820;4.330;2023-12-20T03:58:36;6.60;99.90
35523;DHT22;61478;50.820;4.330;2023-12-20T04:01:09;6.60;99.90
35523;DHT22;61478;50.820;4.330;2023-12-20T04:03:35;6.60;99.90
35523;DHT22;61478;50.820;4.330;2023-12-20T04:06:01;6.50;99.90
35523;DHT22;61478;50.820;4.330;2023-12-20T04:08:26;6.50;99.90
35523;DHT22;61478;50.820;4.330;2023-12-20T04:10:52;6.60;99.90
35523;DHT22;61478;50.820;4.330;2023-12-20T04:13:21;6.60;99.90
35523;DHT22;61478;50.820;4.330;2023-12-20T04:15:50;6.60;99.90
35523;DHT22;61478;50.820;4.330;2023-12-20T04:18:19;6.60;99.90
35523;DHT22;61478;50.820;4.330;2023-12-20T04:20:48;6.60;99.90
35523;DHT22;61478;50.820;4.330;2023-12-20T04:23:17;6.60;99.90
35523;DHT22;61478;50.820;4.330;2023-12-20T04:25:48;6.60;99.90
35523;DHT22;61478;50.820;4.330;2023-12-20T04:28:19;6.60;99.90
35523;DHT22;61478;50.820;4.330;2023-12-20T04:30:48;6.50;99.90
35523;DHT22;61478;50.820;4.330;2023-12-20T04:33:17;6.50;99.90
35523;DHT22;61478;50.820;4.330;2023-12-20T04:35:43;6.50;99.90
35523;DHT22;61478;50.820;4.330;2023-12-20T04:38:11;6.40;99.90
35523;DHT22;61478;50.820;4.330;2023-12-20T04:40:37;6.40;99.90
35523;DHT22;61478;50.820;4.330;2023-12-20T04:43:03;6.50;99.90
35523;DHT22;61478;50.820;4.330;2023-12-20T04:45:29;6.40;99.90
35523;DHT22;61478;50.820;4.330;2023-12-20T04:47:56;6.40;99.90
35523;DHT22;61478;50.820;4.330;2023-12-20T04:50:25;6.40;99.90
35523;DHT22;61478;50.820;4.330;2023-12-20T04:53:02;6.50;99.90
35523;DHT22;61478;50.820;4.330;2023-12-20T04:55:37;6.40;99.90
35523;DHT22;61478;50.820;4.330;2023-12-20T04:58:15;6.40;99.90
35523;DHT22;61478;50.820;4.330;2023-12-20T05:00:44;6.40;99.90
35523;DHT22;61478;50.820;4.330;2023-12-20T05:03:12;6.40;99.90
35523;DHT22;61478;50.820;4.330;2023-12-20T05:05:44;6.40;99.90
35523;DHT22;61478;50.820;4.330;2023-12-20T05:08:10;6.40;99.90
35523;DHT22;61478;50.820;4.330;2023-12-20T05:10:36;6.40;99.90
35523;DHT22;61478;50.820;4.330;2023-12-20T05:13:02;6.30;99.90
35523;DHT22;61478;50.820;4.330;2023-12-20T05:15:28;6.40;99.90
35523;DHT22;61478;50.820;4.330;2023-12-20T05:17:53;6.40;99.90
35523;DHT22;61478;50.820;4.330;2023-12-20T05:20:19;6.30;99.90
35523;DHT22;61478;50.820;4.330;2023-12-20T05:22:45;6.40;99.90
35523;DHT22;61478;50.820;4.330;2023-12-20T05:25:11;6.30;99.90
35523;DHT22;61478;50.820;4.330;2023-12-20T05:27:37;6.30;99.90
35523;DHT22;61478;50.820;4.330;2023-12-20T05:30:03;6.30;99.90
35523;DHT22;61478;50.820;4.330;2023-12-20T05:32:30;6.20;99.90
35523;DHT22;61478;50.820;4.330;2023-12-20T05:34:56;6.20;99.90
35523;DHT22;61478;50.820;4.330;2023-12-20T05:37:22;6.20;99.90
35523;DHT22;61478;50.820;4.330;2023-12-20T05:39:48;6.20;99.90
35523;DHT22;61478;50.820;4.330;2023-12-20T05:42:14;6.10;99.90
35523;DHT22;61478;50.820;4.330;2023-12-20T05:44:39;6.10;99.90
35523;DHT22;61478;50.820;4.330;2023-12-20T05:47:05;6.10;99.90
35523;DHT22;61478;50.820;4.330;2023-12-20T05:49:31;6.00;99.90
35523;DHT22;61478;50.820;4.330;2023-12-20T05:51:59;6.10;99.90
35523;DHT22;61478;50.820;4.330;2023-12-20T05:54:28;6.00;99.90
35523;DHT22;61478;50.820;4.330;2023-12-20T05:56:56;5.90;99.90
35523;DHT22;61478;50.820;4.330;2023-12-20T05:59:22;5.90;99.90
35523;DHT22;61478;50.820;4.330;2023-12-20T06:01:49;5.90;99.90
35523;DHT22;61478;50.820;4.330;2023-12-20T06:04:18;5.90;99.90
35523;DHT22;61478;50.820;4.330;2023-12-20T06:06:44;5.80;99.90
35523;DHT22;61478;50.820;4.330;2023-12-20T06:09:10;5.90;99.90
35523;DHT22;61478;50.820;4.330;2023-12-20T06:11:36;5.90;99.90
35523;DHT22;61478;50.820;4.330;2023-12-20T06:14:05;5.90;99.90
35523;DHT22;61478;50.820;4.330;2023-12-20T06:16:31;5.90;99.90
35523;DHT22;61478;50.820;4.330;2023-12-20T06:18:57;5.90;99.90
35523;DHT22;61478;50.820;4.330;2023-12-20T06:21:33;6.00;99.90
35523;DHT22;61478;50.820;4.330;2023-12-20T06:23:59;5.90;99.90
35523;DHT22;61478;50.820;4.330;2023-12-20T06:26:25;5.90;99.90
35523;DHT22;61478;50.820;4.330;2023-12-20T06:28:54;5.90;99.90
35523;DHT22;61478;50.820;4.330;2023-12-20T06:31:23;6.00;99.90
35523;DHT22;61478;50.820;4.330;2023-12-20T06:33:49;6.00;99.90
35523;DHT22;61478;50.820;4.330;2023-12-20T06:36:28;6.00;99.90
35523;DHT22;61478;50.820;4.330;2023-12-20T06:38:55;6.00;99.90
35523;DHT22;61478;50.820;4.330;2023-12-20T06:41:21;6.00;99.90
35523;DHT22;61478;50.820;4.330;2023-12-20T06:43:47;5.90;99.90
35523;DHT22;61478;50.820;4.330;2023-12-20T06:46:15;5.80;99.90
35523;DHT22;61478;50.820;4.330;2023-12-20T06:48:42;5.80;99.90
35523;DHT22;61478;50.820;4.330;2023-12-20T06:51:10;5.80;99.90
35523;DHT22;61478;50.820;4.330;2023-12-20T06:53:36;5.80;99.90
35523;DHT22;61478;50.820;4.330;2023-12-20T06:56:02;5.80;99.90
35523;DHT22;61478;50.820;4.330;2023-12-20T06:58:28;5.80;99.90
35523;DHT22;61478;50.820;4.330;2023-12-20T07:00:53;5.80;99.90
35523;DHT22;61478;50.820;4.330;2023-12-20T07:03:19;5.70;99.90
35523;DHT22;61478;50.820;4.330;2023-12-20T07:05:45;5.70;99.90
35523;DHT22;61478;50.820;4.330;2023-12-20T07:08:11;5.70;99.90
35523;DHT22;61478;50.820;4.330;2023-12-20T07:10:41;5.70;99.90
35523;DHT22;61478;50.820;4.330;2023-12-20T07:13:07;5.60;99.90
35523;DHT22;61478;50.820;4.330;2023-12-20T07:15:33;5.60;99.90
35523;DHT22;61478;50.820;4.330;2023-12-20T07:18:04;5.60;99.90
35523;DHT22;61478;50.820;4.330;2023-12-20T07:20:32;5.60;99.90
35523;DHT22;61478;50.820;4.330;2023-12-20T07:23:01;5.60;99.90
35523;DHT22;61478;50.820;4.330;2023-12-20T07:25:30;5.60;99.90
35523;DHT22;61478;50.820;4.330;2023-12-20T07:27:59;5.70;99.90
35523;DHT22;61478;50.820;4.330;2023-12-20T07:30:28;5.70;99.90
35523;DHT22;61478;50.820;4.330;2023-12-20T07:32:56;5.70;99.90
35523;DHT22;61478;50.820;4.330;2023-12-20T07:35:26;5.60;99.90
35523;DHT22;61478;50.820;4.330;2023-12-20T07:37:52;5.60;99.90
35523;DHT22;61478;50.820;4.330;2023-12-20T07:40:18;5.60;99.90
35523;DHT22;61478;50.820;4.330;2023-12-20T07:42:44;5.60;99.90
35523;DHT22;61478;50.820;4.330;2023-12-20T07:45:10;5.60;99.90
35523;DHT22;61478;50.820;4.330;2023-12-20T07:47:38;5.60;99.90
35523;DHT22;61478;50.820;4.330;2023-12-20T07:50:07;5.50;99.90
35523;DHT22;61478;50.820;4.330;2023-12-20T07:52:36;5.50;99.90
35523;DHT22;61478;50.820;4.330;2023-12-20T07:55:03;5.50;99.90
35523;DHT22;61478;50.820;4.330;2023-12-20T07:57:29;5.50;99.90
35523;DHT22;61478;50.820;4.330;2023-12-20T07:59:56;5.50;99.90
35523;DHT22;61478;50.820;4.330;2023-12-20T08:05:01;5.50;99.90
35523;DHT22;61478;50.820;4.330;2023-12-20T08:07:27;5.50;99.90
35523;DHT22;61478;50.820;4.330;2023-12-20T08:09:53;5.70;99.90
35523;DHT22;61478;50.820;4.330;2023-12-20T08:12:23;5.70;99.90
35523;DHT22;61478;50.820;4.330;2023-12-20T08:14:53;5.70;99.90
35523;DHT22;61478;50.820;4.330;2023-12-20T08:17:19;5.60;99.90
35523;DHT22;61478;50.820;4.330;2023-12-20T08:19:52;5.60;99.90
35523;DHT22;61478;50.820;4.330;2023-12-20T08:22:20;5.60;99.90
35523;DHT22;61478;50.820;4.330;2023-12-20T08:24:54;5.60;99.90
35523;DHT22;61478;50.820;4.330;2023-12-20T08:27:32;5.70;99.90
35523;DHT22;61478;50.820;4.330;2023-12-20T08:29:59;5.70;99.90
35523;DHT22;61478;50.820;4.330;2023-12-20T08:32:25;5.70;99.90
35523;DHT22;61478;50.820;4.330;2023-12-20T08:34:51;5.70;99.90
35523;DHT22;61478;50.820;4.330;2023-12-20T08:37:17;5.70;99.90
35523;DHT22;61478;50.820;4.330;2023-12-20T08:39:43;5.70;99.90
35523;DHT22;61478;50.820;4.330;2023-12-20T08:42:09;5.70;99.90
35523;DHT22;61478;50.820;4.330;2023-12-20T08:44:35;5.70;99.90
35523;DHT22;61478;50.820;4.330;2023-12-20T08:47:04;5.70;99.90
35523;DHT22;61478;50.820;4.330;2023-12-20T08:49:30;5.70;99.90
35523;DHT22;61478;50.820;4.330;2023-12-20T08:51:56;5.70;99.90
35523;DHT22;61478;50.820;4.330;2023-12-20T08:54:22;5.70;99.90
35523;DHT22;61478;50.820;4.330;2023-12-20T08:56:48;5.70;99.90
35523;DHT22;61478;50.820;4.330;2023-12-20T08:59:14;5.60;99.90
35523;DHT22;61478;50.820;4.330;2023-12-20T09:01:40;5.70;99.90
35523;DHT22;61478;50.820;4.330;2023-12-20T09:04:09;5.70;99.90
35523;DHT22;61478;50.820;4.330;2023-12-20T09:06:37;5.70;99.90
35523;DHT22;61478;50.820;4.330;2023-12-20T09:09:06;5.80;99.90
35523;DHT22;61478;50.820;4.330;2023-12-20T09:11:34;5.80;99.90
35523;DHT22;61478;50.820;4.330;2023-12-20T09:14:03;5.80;99.90
35523;DHT22;61478;50.820;4.330;2023-12-20T09:16:34;5.80;99.90
35523;DHT22;61478;50.820;4.330;2023-12-20T09:19:00;5.90;99.90
35523;DHT22;61478;50.820;4.330;2023-12-20T09:21:26;5.90;99.90
35523;DHT22;61478;50.820;4.330;2023-12-20T09:23:52;5.90;99.90
35523;DHT22;61478;50.820;4.330;2023-12-20T09:26:18;5.90;99.90
35523;DHT22;61478;50.820;4.330;2023-12-20T09:28:44;6.00;99.90
35523;DHT22;61478;50.820;4.330;2023-12-20T09:31:10;6.00;99.90
35523;DHT22;61478;50.820;4.330;2023-12-20T09:33:36;6.00;99.90
35523;DHT22;61478;50.820;4.330;2023-12-20T09:36:02;6.10;99.90
35523;DHT22;61478;50.820;4.330;2023-12-20T09:38:29;6.10;99.90
35523;DHT22;61478;50.820;4.330;2023-12-20T09:40:57;6.20;99.90
35523;DHT22;61478;50.820;4.330;2023-12-20T09:43:24;6.30;99.90
35523;DHT22;61478;50.820;4.330;2023-12-20T09:45:55;6.40;99.90
35523;DHT22;61478;50.820;4.330;2023-12-20T09:48:27;6.40;99.90
35523;DHT22;61478;50.820;4.330;2023-12-20T09:50:53;6.50;99.90
35523;DHT22;61478;50.820;4.330;2023-12-20T09:53:22;6.50;99.90
35523;DHT22;61478;50.820;4.330;2023-12-20T09:55:49;6.60;99.90
35523;DHT22;61478;50.820;4.330;2023-12-20T09:58:15;6.60;99.90
35523;DHT22;61478;50.820;4.330;2023-12-20T10:00:41;6.70;99.90
35523;DHT22;61478;50.820;4.330;2023-12-20T10:03:14;6.70;99.90
35523;DHT22;61478;50.820;4.330;2023-12-20T10:05:43;6.70;99.90
35523;DHT22;61478;50.820;4.330;2023-12-20T10:08:21;6.80;99.90
35523;DHT22;61478;50.820;4.330;2023-12-20T10:10:54;6.80;99.90
35523;DHT22;61478;50.820;4.330;2023-12-20T10:13:29;6.80;99.90
35523;DHT22;61478;50.820;4.330;2023-12-20T10:16:01;6.80;99.90
35523;DHT22;61478;50.820;4.330;2023-12-20T10:18:30;6.70;99.90
35523;DHT22;61478;50.820;4.330;2023-12-20T10:21:06;6.80;99.90
35523;DHT22;61478;50.820;4.330;2023-12-20T10:23:35;6.80;99.90
35523;DHT22;61478;50.820;4.330;2023-12-20T10:26:01;6.90;99.90
35523;DHT22;61478;50.820;4.330;2023-12-20T10:28:28;7.00;99.90
35523;DHT22;61478;50.820;4.330;2023-12-20T10:30:59;7.00;99.90
35523;DHT22;61478;50.820;4.330;2023-12-20T10:33:26;7.00;99.90
35523;DHT22;61478;50.820;4.330;2023-12-20T10:35:52;7.10;99.90
35523;DHT22;61478;50.820;4.330;2023-12-20T10:38:19;7.10;99.90
35523;DHT22;61478;50.820;4.330;2023-12-20T10:40:48;7.20;99.90
35523;DHT22;61478;50.820;4.330;2023-12-20T10:43:19;7.20;99.90
35523;DHT22;61478;50.820;4.330;2023-12-20T10:45:55;7.30;99.90
35523;DHT22;61478;50.820;4.330;2023-12-20T10:48:26;7.40;99.90
35523;DHT22;61478;50.820;4.330;2023-12-20T10:50:58;7.40;99.90
35523;DHT22;61478;50.820;4.330;2023-12-20T10:53:27;7.40;99.90
35523;DHT22;61478;50.820;4.330;2023-12-20T10:55:56;7.50;99.90
35523;DHT22;61478;50.820;4.330;2023-12-20T10:58:25;7.50;99.90
35523;DHT22;61478;50.820;4.330;2023-12-20T11:00:51;7.60;99.90
35523;DHT22;61478;50.820;4.330;2023-12-20T11:03:21;7.60;99.90
35523;DHT22;61478;50.820;4.330;2023-12-20T11:06:09;7.70;99.90
35523;DHT22;61478;50.820;4.330;2023-12-20T11:08:43;7.70;99.90
35523;DHT22;61478;50.820;4.330;2023-12-20T11:11:16;7.70;99.90
35523;DHT22;61478;50.820;4.330;2023-12-20T11:14:05;7.60;99.90
35523;DHT22;61478;50.820;4.330;2023-12-20T11:16:38;7.70;99.90
35523;DHT22;61478;50.820;4.330;2023-12-20T11:19:07;7.80;99.90
35523;DHT22;61478;50.820;4.330;2023-12-20T11:21:33;7.80;99.90
35523;DHT22;61478;50.820;4.330;2023-12-20T11:24:02;7.80;99.90
35523;DHT22;61478;50.820;4.330;2023-12-20T11:26:29;7.80;99.90
35523;DHT22;61478;50.820;4.330;2023-12-20T11:31:40;7.80;99.90
35523;DHT22;61478;50.820;4.330;2023-12-20T11:34:13;7.90;99.90
35523;DHT22;61478;50.820;4.330;2023-12-20T11:36:40;7.80;99.90
35523;DHT22;61478;50.820;4.330;2023-12-20T11:39:06;7.80;99.90
35523;DHT22;61478;50.820;4.330;2023-12-20T11:41:36;7.90;99.90
35523;DHT22;61478;50.820;4.330;2023-12-20T11:44:02;7.80;99.90
35523;DHT22;61478;50.820;4.330;2023-12-20T11:46:31;7.80;99.90
35523;DHT22;61478;50.820;4.330;2023-12-20T11:48:57;7.80;99.90
35523;DHT22;61478;50.820;4.330;2023-12-20T11:51:23;7.90;99.90
35523;DHT22;61478;50.820;4.330;2023-12-20T11:53:52;7.90;99.90
35523;DHT22;61478;50.820;4.330;2023-12-20T11:56:19;8.00;99.90
35523;DHT22;61478;50.820;4.330;2023-12-20T11:58:45;8.00;99.90
35523;DHT22;61478;50.820;4.330;2023-12-20T12:01:11;8.00;99.90
35523;DHT22;61478;50.820;4.330;2023-12-20T12:03:37;8.10;99.90
35523;DHT22;61478;50.820;4.330;2023-12-20T12:06:06;8.10;99.90
35523;DHT22;61478;50.820;4.330;2023-12-20T12:08:41;8.10;99.90
35523;DHT22;61478;50.820;4.330;2023-12-20T12:11:08;8.20;99.90
35523;DHT22;61478;50.820;4.330;2023-12-20T12:13:34;8.20;99.90
35523;DHT22;61478;50.820;4.330;2023-12-20T12:16:00;8.20;99.90
35523;DHT22;61478;50.820;4.330;2023-12-20T12:18:26;8.20;99.90
35523;DHT22;61478;50.820;4.330;2023-12-20T12:20:59;8.30;99.90
35523;DHT22;61478;50.820;4.330;2023-12-20T12:23:32;8.30;99.90
35523;DHT22;61478;50.820;4.330;2023-12-20T12:25:58;8.30;99.90
35523;DHT22;61478;50.820;4.330;2023-12-20T12:28:25;8.30;99.90
35523;DHT22;61478;50.820;4.330;2023-12-20T12:30:57;8.40;99.90
35523;DHT22;61478;50.820;4.330;2023-12-20T12:33:24;8.40;99.90
35523;DHT22;61478;50.820;4.330;2023-12-20T12:35:50;8.40;99.90
35523;DHT22;61478;50.820;4.330;2023-12-20T12:38:19;8.40;99.90
35523;DHT22;61478;50.820;4.330;2023-12-20T12:40:45;8.50;99.90
35523;DHT22;61478;50.820;4.330;2023-12-20T12:43:11;8.40;99.90
35523;DHT22;61478;50.820;4.330;2023-12-20T12:45:38;8.40;99.90
35523;DHT22;61478;50.820;4.330;2023-12-20T12:48:04;8.40;99.90
35523;DHT22;61478;50.820;4.330;2023-12-20T12:50:30;8.50;99.90
35523;DHT22;61478;50.820;4.330;2023-12-20T12:52:56;8.40;99.90
35523;DHT22;61478;50.820;4.330;2023-12-20T12:55:22;8.50;99.90
35523;DHT22;61478;50.820;4.330;2023-12-20T12:57:48;8.50;99.90
35523;DHT22;61478;50.820;4.330;2023-12-20T13:00:14;8.50;99.90
35523;DHT22;61478;50.820;4.330;2023-12-20T13:02:40;8.50;99.90
35523;DHT22;61478;50.820;4.330;2023-12-20T13:05:08;8.40;99.90
35523;DHT22;61478;50.820;4.330;2023-12-20T13:07:34;8.50;99.90
35523;DHT22;61478;50.820;4.330;2023-12-20T13:10:03;8.50;99.90
35523;DHT22;61478;50.820;4.330;2023-12-20T13:12:29;8.50;99.90
35523;DHT22;61478;50.820;4.330;2023-12-20T13:14:55;8.50;99.90
35523;DHT22;61478;50.820;4.330;2023-12-20T13:17:21;8.50;99.90
35523;DHT22;61478;50.820;4.330;2023-12-20T13:19:50;8.50;99.90
35523;DHT22;61478;50.820;4.330;2023-12-20T13:22:16;8.50;99.90
35523;DHT22;61478;50.820;4.330;2023-12-20T13:24:42;8.60;99.90
35523;DHT22;61478;50.820;4.330;2023-12-20T13:27:10;8.50;99.90
35523;DHT22;61478;50.820;4.330;2023-12-20T13:29:35;8.60;99.90
35523;DHT22;61478;50.820;4.330;2023-12-20T13:32:01;8.60;99.90
35523;DHT22;61478;50.820;4.330;2023-12-20T13:34:29;8.60;99.90
35523;DHT22;61478;50.820;4.330;2023-12-20T13:36:57;8.70;99.90
35523;DHT22;61478;50.820;4.330;2023-12-20T13:39:27;8.70;99.90
35523;DHT22;61478;50.820;4.330;2023-12-20T13:41:52;8.80;99.90
35523;DHT22;61478;50.820;4.330;2023-12-20T13:44:18;8.80;99.90
35523;DHT22;61478;50.820;4.330;2023-12-20T13:46:44;8.80;99.90
35523;DHT22;61478;50.820;4.330;2023-12-20T13:49:11;8.80;99.90
35523;DHT22;61478;50.820;4.330;2023-12-20T13:51:37;8.80;99.90
35523;DHT22;61478;50.820;4.330;2023-12-20T13:54:04;8.80;99.90
35523;DHT22;61478;50.820;4.330;2023-12-20T13:56:32;8.80;99.90
35523;DHT22;61478;50.820;4.330;2023-12-20T13:59:01;8.80;99.90
35523;DHT22;61478;50.820;4.330;2023-12-20T14:01:27;8.80;99.90
35523;DHT22;61478;50.820;4.330;2023-12-20T14:03:53;8.90;99.90
35523;DHT22;61478;50.820;4.330;2023-12-20T14:06:19;8.90;99.90
35523;DHT22;61478;50.820;4.330;2023-12-20T14:08:45;8.90;99.90
35523;DHT22;61478;50.820;4.330;2023-12-20T14:11:11;8.90;99.90
35523;DHT22;61478;50.820;4.330;2023-12-20T14:13:37;9.00;99.90
35523;DHT22;61478;50.820;4.330;2023-12-20T14:16:02;9.00;99.90
35523;DHT22;61478;50.820;4.330;2023-12-20T14:18:29;9.00;99.90
35523;DHT22;61478;50.820;4.330;2023-12-20T14:20:55;9.00;99.90
35523;DHT22;61478;50.820;4.330;2023-12-20T14:23:21;8.90;99.90
35523;DHT22;61478;50.820;4.330;2023-12-20T14:25:48;8.90;99.90
35523;DHT22;61478;50.820;4.330;2023-12-20T14:28:19;9.00;99.90
35523;DHT22;61478;50.820;4.330;2023-12-20T14:30:45;9.00;99.90
35523;DHT22;61478;50.820;4.330;2023-12-20T14:33:10;9.00;99.90
35523;DHT22;61478;50.820;4.330;2023-12-20T14:35:36;8.90;99.90
35523;DHT22;61478;50.820;4.330;2023-12-20T14:38:03;9.00;99.90
35523;DHT22;61478;50.820;4.330;2023-12-20T14:40:29;9.00;99.90
35523;DHT22;61478;50.820;4.330;2023-12-20T14:42:57;9.00;99.90
35523;DHT22;61478;50.820;4.330;2023-12-20T14:45:23;9.00;99.90
35523;DHT22;61478;50.820;4.330;2023-12-20T14:47:48;9.00;99.90
35523;DHT22;61478;50.820;4.330;2023-12-20T14:50:14;9.00;99.90
35523;DHT22;61478;50.820;4.330;2023-12-20T14:52:44;9.10;99.90
35523;DHT22;61478;50.820;4.330;2023-12-20T14:55:11;9.10;99.90
35523;DHT22;61478;50.820;4.330;2023-12-20T14:57:37;9.10;99.90
35523;DHT22;61478;50.820;4.330;2023-12-20T15:00:03;9.10;99.90
35523;DHT22;61478;50.820;4.330;2023-12-20T15:02:29;9.10;99.90
35523;DHT22;61478;50.820;4.330;2023-12-20T15:04:56;9.10;99.90
35523;DHT22;61478;50.820;4.330;2023-12-20T15:07:22;9.20;99.90
35523;DHT22;61478;50.820;4.330;2023-12-20T15:09:52;9.20;99.90
35523;DHT22;61478;50.820;4.330;2023-12-20T15:12:18;9.20;99.90
35523;DHT22;61478;50.820;4.330;2023-12-20T15:14:44;9.10;99.90
35523;DHT22;61478;50.820;4.330;2023-12-20T15:17:12;9.10;99.90
35523;DHT22;61478;50.820;4.330;2023-12-20T15:19:41;9.10;99.90
35523;DHT22;61478;50.820;4.330;2023-12-20T15:22:18;9.10;99.90
35523;DHT22;61478;50.820;4.330;2023-12-20T15:24:44;9.10;99.90
35523;DHT22;61478;50.820;4.330;2023-12-20T15:27:14;9.10;99.90
35523;DHT22;61478;50.820;4.330;2023-12-20T15:29:43;9.10;99.90
35523;DHT22;61478;50.820;4.330;2023-12-20T15:32:12;9.10;99.90
35523;DHT22;61478;50.820;4.330;2023-12-20T15:34:40;9.10;99.90
35523;DHT22;61478;50.820;4.330;2023-12-20T15:37:06;9.10;99.90
35523;DHT22;61478;50.820;4.330;2023-12-20T15:39:42;9.10;99.90
35523;DHT22;61478;50.820;4.330;2023-12-20T15:42:08;9.10;99.90
35523;DHT22;61478;50.820;4.330;2023-12-20T15:44:36;9.10;99.90
35523;DHT22;61478;50.820;4.330;2023-12-20T15:47:05;9.20;99.90
35523;DHT22;61478;50.820;4.330;2023-12-20T15:49:40;9.20;99.90
35523;DHT22;61478;50.820;4.330;2023-12-20T15:52:09;9.20;99.90
35523;DHT22;61478;50.820;4.330;2023-12-20T15:54:35;9.20;99.90